Aérodrome :
LOGIN :

S'inscrire | Disclaimer

   EN    FR    IT 

 










Légende :    VFR   VFR Marginal   IFR   IFR Intensif   IFR Très Intensif
Visi : 
Plafond : 
>= 8 km
>= 3000ft
5 à 8 km
1000 à 3000 ft
1500m à 5 km
500 à 1000 ft
800 à 1500m
200 à 500 ft
< 800m
< 200 ft
Symboles :   Orages  Brouillard  Fortes neiges  Fortes précipitations  Vent > 20 kt
SIGMETs :   Divers  Orages  Givrage  Turbulence  Onde Orograph.  Cendres Volcan.







- Altitude de l'aérodrome : 479 ft
- Code IATA : DOL
- Voir les cartes d'approche


LFRG - Deauville

DERNIER METAR :
  • 250700Z AUTO VRB03KT 9999 OVC006 17/16 Q1016 TEMPO 2000 BR BECMG BKN010

METARs EXPIRÉS :
  • 250630Z AUTO VRB03KT 9999 OVC005 16/16 Q1016 TEMPO 2000 BR BECMG BKN010
  • 250600Z AUTO VRB01KT 9999 OVC004 16/16 Q1016 BECMG 2000 BR
  • 250530Z AUTO 09003KT 020V160 4000 BR OVC002 15/15 Q1016 BECMG 2000 BR
  • 250500Z AUTO 06005KT 010V100 1900 BR OVC002 15/15 Q1015
  • 250430Z AUTO 04006KT 010V080 2400 BR OVC002 15/15 Q1015

TAF TAF LFRG
Valide du 25 à 06h jusqu'au 25 à 15h UTC


250500Z 2506/2515 35006KT 2000 BR OVC002
BECMG 2508/2510 9999 NSW BKN010
BECMG 2512/2514 BKN020
ATIS : +33 2 31 65 65 36
Pas de NOTAMs connus pour ce terrain.



MET'MAP, la Météo Aéronautique d'un coup d'oeil ! - Copyright ORBIFLY Décembre 2007 - Disclaimer

ORBIFLY MET'MAP TEAM :

Programmation & Développement : Alexandra Zaïnal
Conception & Développement : Baudouin d'Aumeries
Co-Programmation & Développement : Marc-Olivier Méhu
Soutien technique & logistique : Manuel Goepfert

Contact : metmap@orbifly.com




SOURCES & CREDITS :

   NOAA